createdAt,value
2023-01-19T00:00:02.017Z,100.00
2023-01-19T00:02:28.431Z,100.00
2023-01-19T00:04:54.889Z,100.00
2023-01-19T00:07:21.301Z,100.00
2023-01-19T00:09:47.698Z,100.00
2023-01-19T00:12:14.103Z,100.00
2023-01-19T00:14:40.506Z,100.00
2023-01-19T00:17:07.363Z,100.00
2023-01-19T00:19:33.760Z,100.00
2023-01-19T00:22:00.180Z,100.00
2023-01-19T00:24:26.587Z,100.00
2023-01-19T00:26:52.999Z,100.00
2023-01-19T00:29:20.365Z,100.00
2023-01-19T00:31:46.788Z,100.00
2023-01-19T00:34:13.209Z,100.00
2023-01-19T00:36:39.629Z,100.00
2023-01-19T00:39:06.033Z,100.00
2023-01-19T00:41:50.945Z,100.00
2023-01-19T00:44:17.391Z,100.00
2023-01-19T00:46:43.787Z,100.00
2023-01-19T00:49:10.418Z,100.00
2023-01-19T00:51:36.982Z,100.00
2023-01-19T00:54:04.973Z,100.00
2023-01-19T00:56:32.169Z,100.00
2023-01-19T00:58:59.613Z,100.00
2023-01-19T01:01:45.249Z,100.00
2023-01-19T01:04:14.209Z,100.00
2023-01-19T01:06:40.757Z,100.00
2023-01-19T01:09:12.041Z,100.00
2023-01-19T01:11:39.925Z,100.00
2023-01-19T01:14:07.294Z,100.00
2023-01-19T01:16:33.935Z,100.00
2023-01-19T01:19:00.637Z,100.00
2023-01-19T01:21:27.312Z,100.00
2023-01-19T01:23:53.756Z,100.00
2023-01-19T01:26:20.566Z,100.00
2023-01-19T01:28:47.118Z,100.00
2023-01-19T01:31:13.554Z,100.00
2023-01-19T01:33:41.923Z,100.00
2023-01-19T01:36:10.174Z,100.00
2023-01-19T01:38:36.686Z,100.00
2023-01-19T01:41:03.685Z,100.00
2023-01-19T01:43:54.966Z,100.00
2023-01-19T01:46:21.456Z,100.00
2023-01-19T01:49:03.232Z,100.00
2023-01-19T01:51:32.177Z,100.00
2023-01-19T01:54:03.415Z,100.00
2023-01-19T01:56:37.572Z,100.00
2023-01-19T01:59:11.920Z,100.00
2023-01-19T02:01:57.511Z,100.00
2023-01-19T02:04:24.506Z,100.00
2023-01-19T02:07:09.406Z,100.00
2023-01-19T02:09:56.143Z,100.00
2023-01-19T02:12:42.059Z,100.00
2023-01-19T02:15:16.629Z,100.00
2023-01-19T02:17:43.315Z,100.00
2023-01-19T02:20:10.690Z,100.00
2023-01-19T02:22:46.349Z,100.00
2023-01-19T02:25:13.020Z,100.00
2023-01-19T02:27:39.536Z,100.00
2023-01-19T02:30:07.392Z,100.00
2023-01-19T02:32:33.861Z,100.00
2023-01-19T02:35:00.328Z,100.00
2023-01-19T02:37:32.680Z,100.00
2023-01-19T02:40:02.623Z,100.00
2023-01-19T02:42:39.750Z,100.00
2023-01-19T02:45:09.476Z,100.00
2023-01-19T02:47:40.728Z,100.00
2023-01-19T02:50:39.247Z,100.00
2023-01-19T02:53:19.279Z,100.00
2023-01-19T02:55:53.649Z,100.00
2023-01-19T02:58:40.455Z,100.00
2023-01-19T03:01:27.648Z,100.00
2023-01-19T03:03:55.855Z,100.00
2023-01-19T03:06:29.842Z,100.00
2023-01-19T03:09:03.224Z,100.00
2023-01-19T03:11:38.308Z,100.00
2023-01-19T03:14:11.281Z,100.00
2023-01-19T03:16:51.406Z,100.00
2023-01-19T03:19:23.607Z,100.00
2023-01-19T03:21:55.034Z,100.00
2023-01-19T03:24:24.886Z,100.00
2023-01-19T03:26:59.088Z,100.00
2023-01-19T03:29:29.985Z,100.00
2023-01-19T03:31:59.696Z,100.00
2023-01-19T03:34:28.463Z,100.00
2023-01-19T03:37:00.971Z,100.00
2023-01-19T03:39:28.818Z,100.00
2023-01-19T03:41:59.741Z,100.00
2023-01-19T03:44:28.443Z,100.00
2023-01-19T03:46:56.849Z,100.00
2023-01-19T03:49:23.332Z,100.00
2023-01-19T03:51:49.886Z,100.00
2023-01-19T03:54:16.289Z,100.00
2023-01-19T03:56:43.733Z,100.00
2023-01-19T03:59:10.122Z,100.00
2023-01-19T04:01:36.698Z,100.00
2023-01-19T04:04:03.175Z,100.00
2023-01-19T04:06:29.608Z,100.00
2023-01-19T04:08:56.058Z,100.00
2023-01-19T04:11:22.543Z,100.00
2023-01-19T04:13:48.953Z,100.00
2023-01-19T04:16:20.053Z,100.00
2023-01-19T04:18:47.292Z,100.00
2023-01-19T04:21:13.844Z,100.00
2023-01-19T04:23:40.230Z,100.00
2023-01-19T04:26:08.625Z,100.00
2023-01-19T04:28:37.012Z,100.00
2023-01-19T04:31:05.169Z,100.00
2023-01-19T04:33:31.919Z,100.00
2023-01-19T04:35:58.381Z,100.00
2023-01-19T04:38:25.566Z,100.00
2023-01-19T04:40:52.960Z,100.00
2023-01-19T04:43:20.255Z,100.00
2023-01-19T04:45:47.689Z,100.00
2023-01-19T04:48:14.512Z,100.00
2023-01-19T04:50:41.962Z,100.00
2023-01-19T04:53:08.873Z,100.00
2023-01-19T04:55:35.277Z,100.00
2023-01-19T04:58:01.667Z,100.00
2023-01-19T05:00:28.175Z,100.00
2023-01-19T05:02:54.806Z,100.00
2023-01-19T05:05:21.537Z,100.00
2023-01-19T05:07:48.050Z,100.00
2023-01-19T05:10:14.575Z,100.00
2023-01-19T05:12:42.185Z,100.00
2023-01-19T05:15:09.642Z,100.00
2023-01-19T05:17:36.391Z,100.00
2023-01-19T05:20:04.182Z,100.00
2023-01-19T05:22:30.604Z,100.00
2023-01-19T05:24:57.011Z,100.00
2023-01-19T05:27:23.403Z,100.00
2023-01-19T05:29:49.792Z,100.00
2023-01-19T05:32:16.151Z,100.00
2023-01-19T05:34:42.532Z,100.00
2023-01-19T05:37:08.955Z,100.00
2023-01-19T05:39:35.337Z,100.00
2023-01-19T05:42:01.699Z,100.00
2023-01-19T05:44:28.039Z,100.00
2023-01-19T05:46:54.462Z,100.00
2023-01-19T05:49:20.885Z,100.00
2023-01-19T05:51:47.355Z,100.00
2023-01-19T05:54:15.341Z,100.00
2023-01-19T05:56:42.591Z,100.00
2023-01-19T05:59:09.160Z,100.00
2023-01-19T06:01:38.774Z,100.00
2023-01-19T06:04:06.154Z,100.00
2023-01-19T06:06:32.651Z,100.00
2023-01-19T06:08:59.009Z,100.00
2023-01-19T06:11:26.124Z,100.00
2023-01-19T06:13:52.867Z,100.00
2023-01-19T06:16:19.471Z,100.00
2023-01-19T06:18:46.080Z,100.00
2023-01-19T06:21:14.235Z,100.00
2023-01-19T06:23:41.048Z,100.00
2023-01-19T06:26:07.743Z,100.00
2023-01-19T06:28:34.180Z,100.00
2023-01-19T06:31:01.045Z,100.00
2023-01-19T06:33:28.048Z,100.00
2023-01-19T06:35:55.301Z,100.00
2023-01-19T06:38:22.104Z,100.00
2023-01-19T06:40:58.478Z,100.00
2023-01-19T06:43:25.941Z,100.00
2023-01-19T06:45:52.626Z,100.00
2023-01-19T06:48:19.213Z,100.00
2023-01-19T06:50:46.464Z,100.00
2023-01-19T06:53:16.253Z,100.00
2023-01-19T06:55:43.932Z,100.00
2023-01-19T06:58:10.974Z,100.00
2023-01-19T07:00:37.769Z,100.00
2023-01-19T07:03:07.459Z,100.00
2023-01-19T07:05:37.029Z,100.00
2023-01-19T07:08:04.159Z,100.00
2023-01-19T07:11:25.848Z,100.00
2023-01-19T07:13:17.565Z,100.00
2023-01-19T07:15:44.102Z,100.00
2023-01-19T07:18:10.539Z,100.00
2023-01-19T07:20:38.157Z,100.00
2023-01-19T07:23:04.755Z,100.00
2023-01-19T07:25:31.152Z,100.00
2023-01-19T07:28:01.581Z,100.00
2023-01-19T07:30:28.644Z,100.00
2023-01-19T07:32:57.287Z,100.00
2023-01-19T07:35:27.008Z,100.00
2023-01-19T07:37:53.357Z,100.00
2023-01-19T07:40:19.764Z,100.00
2023-01-19T07:42:50.506Z,100.00
2023-01-19T07:45:17.912Z,100.00
2023-01-19T07:47:45.190Z,100.00
2023-01-19T07:50:13.699Z,100.00
2023-01-19T07:52:40.219Z,100.00
2023-01-19T07:55:07.585Z,100.00
2023-01-19T07:57:34.477Z,100.00
2023-01-19T08:00:01.008Z,100.00
2023-01-19T08:02:27.443Z,100.00
2023-01-19T08:04:53.878Z,100.00
2023-01-19T08:07:20.325Z,100.00
2023-01-19T08:09:46.814Z,100.00
2023-01-19T08:12:13.196Z,100.00
2023-01-19T08:14:39.674Z,100.00
2023-01-19T08:17:06.057Z,100.00
2023-01-19T08:19:32.535Z,100.00
2023-01-19T08:21:59.891Z,100.00
2023-01-19T08:24:29.055Z,100.00
2023-01-19T08:27:03.477Z,100.00
2023-01-19T08:29:33.751Z,100.00
2023-01-19T08:32:02.202Z,100.00
2023-01-19T08:34:30.986Z,99.75
2023-01-19T08:36:58.388Z,100.00
2023-01-19T08:39:25.444Z,100.00
2023-01-19T08:41:52.463Z,99.85
2023-01-19T08:44:18.863Z,100.00
2023-01-19T08:46:45.363Z,100.00
2023-01-19T08:49:11.862Z,100.00
2023-01-19T08:51:38.252Z,100.00
2023-01-19T08:54:05.051Z,100.00
2023-01-19T08:56:31.654Z,100.00
2023-01-19T08:59:08.561Z,100.00
2023-01-19T09:01:37.136Z,100.00
2023-01-19T09:04:03.801Z,100.00
2023-01-19T09:06:30.182Z,100.00
2023-01-19T09:08:57.467Z,99.89
2023-01-19T09:11:23.964Z,100.00
2023-01-19T09:13:50.641Z,100.00
2023-01-19T09:16:17.536Z,99.95
2023-01-19T09:18:45.684Z,99.04
2023-01-19T09:21:12.382Z,99.88
2023-01-19T09:23:38.780Z,100.00
2023-01-19T09:26:05.957Z,100.00
2023-01-19T09:28:33.249Z,100.00
2023-01-19T09:30:59.994Z,98.28
2023-01-19T09:33:26.575Z,100.00
2023-01-19T09:35:53.007Z,100.00
2023-01-19T09:38:23.887Z,97.99
2023-01-19T09:40:53.724Z,97.58
2023-01-19T09:43:41.311Z,96.24
2023-01-19T09:46:17.190Z,95.25
2023-01-19T09:48:51.573Z,92.77
2023-01-19T09:51:36.228Z,91.10
2023-01-19T09:54:31.149Z,91.52
2023-01-19T09:56:57.557Z,91.59
2023-01-19T09:59:24.616Z,91.84
2023-01-19T10:02:15.813Z,93.22
2023-01-19T10:04:52.848Z,93.02
2023-01-19T10:07:53.146Z,94.92
2023-01-19T10:10:25.957Z,95.05
2023-01-19T10:13:17.754Z,94.40
2023-01-19T10:16:03.841Z,95.67
2023-01-19T10:18:47.432Z,95.81
2023-01-19T10:21:40.879Z,96.07
2023-01-19T10:24:17.804Z,95.79
2023-01-19T10:26:49.718Z,96.44
2023-01-19T10:29:37.506Z,96.49
2023-01-19T10:32:21.215Z,96.55
2023-01-19T10:34:49.180Z,95.52
2023-01-19T10:37:27.613Z,96.84
2023-01-19T10:39:57.249Z,97.09
2023-01-19T10:42:28.842Z,96.24
2023-01-19T10:44:55.603Z,96.46
2023-01-19T10:47:34.299Z,96.96
2023-01-19T10:50:22.063Z,96.23
2023-01-19T10:52:54.851Z,97.39
2023-01-19T10:55:33.803Z,98.03
2023-01-19T10:58:00.765Z,97.80
2023-01-19T11:00:35.484Z,97.74
2023-01-19T11:03:02.468Z,99.02
2023-01-19T11:05:32.287Z,97.99
2023-01-19T11:07:59.114Z,98.13
2023-01-19T11:10:27.362Z,98.09
2023-01-19T11:13:01.331Z,98.01
2023-01-19T11:16:03.251Z,99.13
2023-01-19T11:18:38.698Z,100.00
2023-01-19T11:21:11.443Z,100.00
2023-01-19T11:23:53.028Z,100.00
2023-01-19T11:26:40.658Z,100.00
2023-01-19T11:29:25.390Z,99.67
2023-01-19T11:31:57.777Z,99.42
2023-01-19T11:34:33.337Z,98.88
2023-01-19T11:37:25.022Z,99.20
2023-01-19T11:39:54.857Z,98.78
2023-01-19T11:42:22.788Z,98.41
2023-01-19T11:45:13.029Z,98.85
2023-01-19T11:47:49.616Z,98.44
2023-01-19T11:50:40.784Z,98.71
2023-01-19T11:53:24.736Z,99.07
2023-01-19T11:56:13.853Z,97.88
2023-01-19T11:58:43.261Z,98.01
2023-01-19T12:01:33.096Z,98.80
2023-01-19T12:04:08.654Z,99.03
2023-01-19T12:06:42.866Z,97.38
2023-01-19T12:09:19.210Z,96.35
2023-01-19T12:11:50.858Z,97.00
2023-01-19T12:14:23.467Z,97.47
2023-01-19T12:16:53.502Z,97.86
2023-01-19T12:19:26.519Z,97.16
2023-01-19T12:21:53.624Z,97.39
2023-01-19T12:24:47.092Z,98.09
2023-01-19T12:27:37.753Z,98.08
2023-01-19T12:30:05.912Z,97.22
2023-01-19T12:32:34.408Z,97.49
2023-01-19T12:35:00.935Z,98.25
2023-01-19T12:37:27.506Z,97.47
2023-01-19T12:39:56.514Z,97.78
2023-01-19T12:42:23.347Z,96.99
2023-01-19T12:45:06.238Z,97.20
2023-01-19T12:47:33.760Z,96.93
2023-01-19T12:50:07.369Z,95.71
2023-01-19T12:52:51.513Z,94.72
2023-01-19T12:55:23.058Z,94.96
2023-01-19T12:57:58.826Z,94.94
2023-01-19T13:00:25.098Z,94.28
2023-01-19T13:02:59.861Z,94.61
2023-01-19T13:05:33.384Z,93.29
2023-01-19T13:08:03.142Z,93.38
2023-01-19T13:11:02.061Z,93.76
2023-01-19T13:13:29.260Z,91.71
2023-01-19T13:15:59.844Z,92.27
2023-01-19T13:18:30.534Z,92.20
2023-01-19T13:21:01.144Z,92.34
2023-01-19T13:23:49.856Z,92.03
2023-01-19T13:26:18.330Z,92.78
2023-01-19T13:28:48.871Z,92.53
2023-01-19T13:31:17.044Z,92.37
2023-01-19T13:33:50.829Z,92.20
2023-01-19T13:36:30.495Z,90.24
2023-01-19T13:39:00.345Z,89.25
2023-01-19T13:41:31.068Z,88.91
2023-01-19T13:44:12.309Z,87.41
2023-01-19T13:46:39.511Z,86.00
2023-01-19T13:49:20.952Z,87.13
2023-01-19T13:52:07.442Z,88.54
2023-01-19T13:54:33.796Z,88.81
2023-01-19T13:57:00.219Z,87.39
2023-01-19T13:59:26.630Z,87.27
2023-01-19T14:02:11.233Z,87.44
2023-01-19T14:04:37.683Z,86.40
2023-01-19T14:07:13.734Z,86.14
2023-01-19T14:09:40.173Z,85.86
2023-01-19T14:12:17.382Z,87.12
2023-01-19T14:14:47.244Z,87.32
2023-01-19T14:17:26.167Z,87.67
2023-01-19T14:19:55.685Z,86.92
2023-01-19T14:22:37.517Z,86.73
2023-01-19T14:25:25.702Z,88.14
2023-01-19T14:27:52.316Z,87.79
2023-01-19T14:30:22.615Z,87.61
2023-01-19T14:32:49.055Z,88.27
2023-01-19T14:35:24.352Z,89.24
2023-01-19T14:37:52.268Z,89.29
2023-01-19T14:40:21.475Z,88.42
2023-01-19T14:43:00.534Z,88.97
2023-01-19T14:45:36.949Z,88.65
2023-01-19T14:48:17.803Z,88.22
2023-01-19T14:50:57.663Z,88.12
2023-01-19T14:53:30.035Z,88.22
2023-01-19T14:56:04.431Z,88.33
2023-01-19T14:58:34.213Z,88.17
2023-01-19T15:01:01.226Z,88.43
2023-01-19T15:03:43.699Z,88.20
2023-01-19T15:06:17.877Z,89.39
2023-01-19T15:08:45.581Z,88.08
2023-01-19T15:11:31.377Z,88.26
2023-01-19T15:13:59.204Z,89.38
2023-01-19T15:16:27.720Z,88.48
2023-01-19T15:18:54.157Z,89.17
2023-01-19T15:21:26.713Z,90.02
2023-01-19T15:23:54.565Z,90.93
2023-01-19T15:26:23.821Z,91.18
2023-01-19T15:28:50.483Z,91.98
2023-01-19T15:31:19.511Z,91.10
2023-01-19T15:33:46.383Z,92.21
2023-01-19T15:36:16.398Z,92.55
2023-01-19T15:38:44.145Z,91.78
2023-01-19T15:41:15.333Z,91.00
2023-01-19T15:43:41.788Z,92.00
2023-01-19T15:46:13.073Z,91.69
2023-01-19T15:48:39.435Z,91.77
2023-01-19T15:51:06.027Z,92.01
2023-01-19T15:53:32.429Z,92.61
2023-01-19T15:55:58.897Z,92.96
2023-01-19T15:58:25.398Z,93.89
2023-01-19T16:00:56.570Z,94.84
2023-01-19T16:03:23.759Z,94.50
2023-01-19T16:05:50.143Z,94.47
2023-01-19T16:08:16.691Z,95.61
2023-01-19T16:10:43.270Z,95.41
2023-01-19T16:13:12.548Z,96.26
2023-01-19T16:15:40.262Z,96.60
2023-01-19T16:18:06.897Z,97.04
2023-01-19T16:20:33.392Z,96.26
2023-01-19T16:23:13.790Z,96.89
2023-01-19T16:25:41.156Z,96.78
2023-01-19T16:28:08.294Z,96.50
2023-01-19T16:30:34.748Z,96.59
2023-01-19T16:33:01.145Z,96.57
2023-01-19T16:35:27.522Z,96.07
2023-01-19T16:37:53.885Z,96.37
2023-01-19T16:40:20.395Z,96.28
2023-01-19T16:42:47.314Z,96.09
2023-01-19T16:45:13.804Z,96.09
2023-01-19T16:47:40.303Z,96.35
2023-01-19T16:50:06.912Z,95.67
2023-01-19T16:52:33.270Z,95.66
2023-01-19T16:54:59.636Z,96.43
2023-01-19T16:57:26.045Z,95.85
2023-01-19T16:59:52.524Z,96.06
2023-01-19T17:02:18.959Z,96.29
2023-01-19T17:04:45.649Z,95.90
2023-01-19T17:07:12.133Z,95.19
2023-01-19T17:09:38.647Z,94.35
2023-01-19T17:12:05.274Z,93.96
2023-01-19T17:14:33.344Z,94.62
2023-01-19T17:17:02.685Z,94.35
2023-01-19T17:19:29.121Z,93.86
2023-01-19T17:21:55.676Z,94.17
2023-01-19T17:24:22.275Z,94.05
2023-01-19T17:26:48.970Z,94.36
2023-01-19T17:29:16.732Z,94.53
2023-01-19T17:31:44.389Z,94.60
2023-01-19T17:34:10.829Z,94.25
2023-01-19T17:36:38.714Z,94.11
2023-01-19T17:39:07.518Z,95.06
2023-01-19T17:41:35.512Z,94.67
2023-01-19T17:44:03.939Z,94.94
2023-01-19T17:46:30.757Z,94.93
2023-01-19T17:48:59.739Z,95.23
2023-01-19T17:51:26.937Z,95.37
2023-01-19T17:53:54.424Z,95.73
2023-01-19T17:56:25.794Z,95.17
2023-01-19T17:58:52.184Z,94.83
2023-01-19T18:01:24.627Z,95.71
2023-01-19T18:03:51.228Z,95.76
2023-01-19T18:06:17.671Z,94.66
2023-01-19T18:08:46.231Z,95.53
2023-01-19T18:11:13.984Z,95.41
2023-01-19T18:13:43.747Z,95.41
2023-01-19T18:16:14.092Z,95.54
2023-01-19T18:18:41.062Z,95.98
2023-01-19T18:21:09.473Z,95.44
2023-01-19T18:23:36.358Z,95.77
2023-01-19T18:26:11.218Z,95.51
2023-01-19T18:28:37.677Z,95.98
2023-01-19T18:31:08.866Z,95.88
2023-01-19T18:33:35.649Z,96.34
2023-01-19T18:36:02.595Z,96.29
2023-01-19T18:38:29.083Z,96.30
2023-01-19T18:41:01.679Z,95.46
2023-01-19T18:43:28.204Z,95.62
2023-01-19T18:45:54.595Z,95.71
2023-01-19T18:48:21.057Z,95.39
2023-01-19T18:50:47.528Z,95.71
2023-01-19T18:53:13.958Z,96.65
2023-01-19T18:55:40.396Z,95.85
2023-01-19T18:58:07.130Z,96.26
2023-01-19T19:00:33.539Z,95.75
2023-01-19T19:02:59.971Z,96.34
2023-01-19T19:05:26.440Z,96.10
2023-01-19T19:07:52.872Z,96.43
2023-01-19T19:10:19.336Z,96.82
2023-01-19T19:12:45.776Z,96.00
2023-01-19T19:15:12.249Z,95.76
2023-01-19T19:17:38.619Z,96.21
2023-01-19T19:20:05.369Z,95.60
2023-01-19T19:22:34.833Z,96.05
2023-01-19T19:25:01.238Z,95.96
2023-01-19T19:27:27.699Z,95.94
2023-01-19T19:29:54.105Z,96.63
2023-01-19T19:32:20.943Z,97.11
2023-01-19T19:34:52.609Z,97.95
2023-01-19T19:37:19.849Z,97.55
2023-01-19T19:39:47.861Z,97.72
2023-01-19T19:42:14.261Z,97.19
2023-01-19T19:44:40.650Z,97.91
2023-01-19T19:47:07.110Z,97.77
2023-01-19T19:49:33.761Z,97.69
2023-01-19T19:52:01.346Z,97.89
2023-01-19T19:54:27.766Z,98.24
2023-01-19T19:56:54.275Z,98.41
2023-01-19T19:59:20.641Z,98.10
2023-01-19T20:01:48.447Z,98.29
2023-01-19T20:04:15.198Z,97.65
2023-01-19T20:06:44.505Z,98.55
2023-01-19T20:09:13.876Z,97.93
2023-01-19T20:11:40.929Z,96.69
2023-01-19T20:14:08.737Z,95.55
2023-01-19T20:16:35.758Z,97.14
2023-01-19T20:19:02.812Z,97.74
2023-01-19T20:21:31.887Z,97.64
2023-01-19T20:24:04.330Z,97.38
2023-01-19T20:26:32.992Z,97.01
2023-01-19T20:29:06.168Z,96.92
2023-01-19T20:31:35.875Z,96.04
2023-01-19T20:34:04.983Z,96.89
2023-01-19T20:36:32.050Z,97.12
2023-01-19T20:38:59.412Z,96.88
2023-01-19T20:41:27.119Z,97.34
2023-01-19T20:43:53.579Z,97.72
2023-01-19T20:46:20.104Z,98.13
2023-01-19T20:48:50.774Z,98.28
2023-01-19T20:51:18.782Z,98.78
2023-01-19T20:53:45.178Z,98.49
2023-01-19T20:56:13.054Z,99.14
2023-01-19T20:58:40.392Z,99.47
2023-01-19T21:01:16.627Z,99.21
2023-01-19T21:03:43.361Z,99.78
2023-01-19T21:06:11.572Z,99.06
2023-01-19T21:08:38.101Z,98.25
2023-01-19T21:11:05.465Z,97.70
2023-01-19T21:13:32.315Z,97.79
2023-01-19T21:15:59.281Z,98.08
2023-01-19T21:18:27.811Z,98.32
2023-01-19T21:20:57.664Z,98.19
2023-01-19T21:23:28.233Z,98.03
2023-01-19T21:25:59.844Z,98.15
2023-01-19T21:28:27.677Z,98.08
2023-01-19T21:30:55.010Z,98.70
2023-01-19T21:33:24.733Z,98.60
2023-01-19T21:35:51.710Z,98.87
2023-01-19T21:38:18.653Z,97.79
2023-01-19T21:40:45.502Z,98.08
2023-01-19T21:43:15.119Z,97.48
2023-01-19T21:45:43.174Z,97.45
2023-01-19T21:48:09.831Z,97.27
2023-01-19T21:50:36.340Z,97.31
2023-01-19T21:53:03.163Z,97.77
2023-01-19T21:55:29.738Z,98.13
2023-01-19T21:57:56.492Z,98.28
2023-01-19T22:00:23.040Z,98.85
2023-01-19T22:03:02.690Z,98.95
2023-01-19T22:05:30.115Z,98.84
2023-01-19T22:07:56.726Z,99.43
2023-01-19T22:10:23.116Z,99.13
2023-01-19T22:12:49.494Z,98.38
2023-01-19T22:15:15.931Z,98.38
2023-01-19T22:17:42.368Z,98.40
2023-01-19T22:20:09.626Z,97.09
2023-01-19T22:22:36.016Z,97.70
2023-01-19T22:25:02.442Z,97.80
2023-01-19T22:27:32.917Z,97.27
2023-01-19T22:30:02.389Z,97.57
2023-01-19T22:32:31.613Z,98.11
2023-01-19T22:34:57.927Z,97.50
2023-01-19T22:37:24.333Z,97.98
2023-01-19T22:39:50.814Z,98.90
2023-01-19T22:42:17.211Z,98.71
2023-01-19T22:44:43.646Z,98.38
2023-01-19T22:47:10.185Z,98.51
2023-01-19T22:49:36.627Z,98.02
2023-01-19T22:52:03.071Z,98.71
2023-01-19T22:54:30.199Z,98.31
2023-01-19T22:56:56.623Z,98.48
2023-01-19T22:59:23.236Z,99.24
2023-01-19T23:01:49.950Z,99.50
2023-01-19T23:04:16.546Z,99.39
2023-01-19T23:06:50.957Z,98.83
2023-01-19T23:09:18.534Z,99.33
2023-01-19T23:11:50.618Z,99.02
2023-01-19T23:14:21.996Z,99.59
2023-01-19T23:16:48.544Z,99.69
2023-01-19T23:19:17.065Z,99.88
2023-01-19T23:21:44.453Z,99.25
2023-01-19T23:24:11.835Z,99.91
2023-01-19T23:26:38.551Z,99.84
2023-01-19T23:29:11.575Z,99.69
2023-01-19T23:31:39.721Z,99.08
2023-01-19T23:34:08.267Z,99.32
2023-01-19T23:36:36.564Z,100.00
2023-01-19T23:39:11.942Z,100.00
2023-01-19T23:41:38.335Z,100.00
2023-01-19T23:44:04.970Z,100.00
2023-01-19T23:46:44.621Z,100.00
2023-01-19T23:49:12.081Z,100.00
2023-01-19T23:51:39.546Z,100.00
2023-01-19T23:54:06.095Z,100.00
2023-01-19T23:56:35.524Z,100.00
2023-01-19T23:59:13.320Z,100.00
